Terminal Aerodrome Forecast
Issued by NWS Sioux Falls, SD

Home | Current Version | Previous Version | Graphics & Text | Print | Product List | Glossary On
Versions: 1 2 3 4 5 6 7 8 9 10 11 12 13 14 15 16
000
FTUS43 KFSD 171138
TAFSUX
TAF
KSUX 171138Z 1712/1812 15015KT P6SM OVC020
     FM171300 16011KT P6SM OVC015
     FM171900 25007KT P6SM OVC015
     FM172100 31009KT P6SM OVC080
     FM180300 35007KT P6SM OVC025=

USA.gov is the U.S. government's official web portal to all federal, state and local government web resources and services.